Time;durP1;ratioP1;P1;durP2;ratioP2;P2;SDS_P1;SDS_P2;PMS_P1;PMS_P2;Temp;Humidity;BMP_temperature;BMP_pressure;BME280_temperature;BME280_humidity;BME280_pressure;Samples;Min_cycle;Max_cycle;Signal;HPM_P1;HPM_P2
2021/09/25 00:01:57;;;;;;;21.90;18.85;;;;;;;;;;6225400;28;20159;-77
2021/09/25 00:04:58;;;;;;;26.48;20.20;;;;;;;;;;6238777;28;20081;-77
2021/09/25 00:08:00;;;;;;;22.98;18.92;;;;;;;;;;6228828;28;20102;-76
2021/09/25 00:11:01;;;;;;;21.70;18.45;;;;;;;;;;6229068;28;20049;-76
2021/09/25 00:14:04;;;;;;;22.10;18.27;;;;;;;;;;6238597;28;20123;-75
2021/09/25 00:17:07;;;;;;;28.15;19.25;;;;;;;;;;6224480;28;20053;-75
2021/09/25 00:20:09;;;;;;;26.52;20.65;;;;;;;;;;6231512;28;20099;-76
2021/09/25 00:23:11;;;;;;;27.25;20.42;;;;;;;;;;6231664;28;20132;-76
2021/09/25 00:26:12;;;;;;;29.73;21.17;;;;;;;;;;6228551;28;20073;-76
2021/09/25 00:29:15;;;;;;;30.65;22.13;;;;;;;;;;6234321;28;20162;-76
2021/09/25 00:32:17;;;;;;;28.88;22.45;;;;;;;;;;6223527;28;20485;-76
2021/09/25 00:35:19;;;;;;;32.25;22.25;;;;;;;;;;6233909;28;20740;-77
2021/09/25 00:38:20;;;;;;;33.42;22.60;;;;;;;;;;6233956;28;20049;-74
2021/09/25 00:41:22;;;;;;;26.27;23.00;;;;;;;;;;6228733;28;20401;-73
2021/09/25 00:44:25;;;;;;;30.40;20.38;;;;;;;;;;6233768;28;20131;-74
2021/09/25 00:47:26;;;;;;;26.58;20.60;;;;;;;;;;6220255;28;20509;-75
2021/09/25 00:50:28;;;;;;;29.77;21.63;;;;;;;;;;6228353;28;20048;-73
2021/09/25 00:53:30;;;;;;;27.52;20.38;;;;;;;;;;6223854;28;20560;-74
2021/09/25 00:56:32;;;;;;;26.10;20.52;;;;;;;;;;6224717;28;20050;-73
2021/09/25 00:59:35;;;;;;;24.23;19.95;;;;;;;;;;6234800;28;20140;-73
2021/09/25 01:02:36;;;;;;;30.27;21.48;;;;;;;;;;6225846;28;20263;-75
2021/09/25 01:05:41;;;;;;;29.80;22.58;;;;;;;;;;6234398;28;20132;-73
2021/09/25 01:08:42;;;;;;;29.13;21.75;;;;;;;;;;6235168;28;20199;-71
2021/09/25 01:11:44;;;;;;;28.90;22.00;;;;;;;;;;6234368;28;20046;-72
2021/09/25 01:14:47;;;;;;;27.95;22.27;;;;;;;;;;6245439;28;20054;-72
2021/09/25 01:17:49;;;;;;;28.30;22.52;;;;;;;;;;6228940;28;20136;-71
2021/09/25 01:20:50;;;;;;;30.80;23.02;;;;;;;;;;6237247;28;20135;-72
2021/09/25 01:23:53;;;;;;;27.67;23.92;;;;;;;;;;6242728;28;20041;-74
2021/09/25 01:26:55;;;;;;;32.22;24.55;;;;;;;;;;6235960;28;20478;-76
2021/09/25 01:29:56;;;;;;;30.98;24.50;;;;;;;;;;6245678;28;20049;-74
2021/09/25 01:33:00;;;;;;;30.35;23.98;;;;;;;;;;6232032;28;20568;-73
2021/09/25 01:36:02;;;;;;;30.00;24.77;;;;;;;;;;6233834;28;20520;-73
2021/09/25 01:39:05;;;;;;;29.50;24.88;;;;;;;;;;6240190;28;20397;-74
2021/09/25 01:42:07;;;;;;;32.13;24.20;;;;;;;;;;6241642;28;20065;-73
2021/09/25 01:45:10;;;;;;;32.22;25.83;;;;;;;;;;6223743;28;20060;-78
2021/09/25 01:48:12;;;;;;;32.25;24.75;;;;;;;;;;6234298;28;20044;-75
2021/09/25 01:51:14;;;;;;;31.05;25.35;;;;;;;;;;6235109;28;20050;-73
2021/09/25 01:54:18;;;;;;;30.98;24.42;;;;;;;;;;6234521;28;20053;-77
2021/09/25 01:57:19;;;;;;;31.08;25.38;;;;;;;;;;6235970;28;20658;-73
2021/09/25 02:00:22;;;;;;;37.38;26.58;;;;;;;;;;6238110;28;20148;-76
2021/09/25 02:03:23;;;;;;;35.20;26.17;;;;;;;;;;6235013;28;20057;-75
2021/09/25 02:06:25;;;;;;;34.50;27.90;;;;;;;;;;6234597;28;20490;-74
2021/09/25 02:09:28;;;;;;;40.22;28.15;;;;;;;;;;6221038;28;20113;-74
2021/09/25 02:12:30;;;;;;;37.25;28.75;;;;;;;;;;6212588;28;20126;-75
2021/09/25 02:15:33;;;;;;;36.45;28.30;;;;;;;;;;6228282;28;20990;-76
2021/09/25 02:18:34;;;;;;;;;;;;;;;;;;6237884;28;20052;-75
2021/09/25 02:21:37;;;;;;;37.10;28.67;;;;;;;;;;6236685;28;19966;-74
2021/09/25 02:24:40;;;;;;;36.28;28.90;;;;;;;;;;6241608;28;20060;-75
2021/09/25 02:27:41;;;;;;;37.35;28.90;;;;;;;;;;6236334;28;20128;-74
2021/09/25 02:30:43;;;;;;;36.55;29.00;;;;;;;;;;6237983;28;20041;-78
2021/09/25 02:33:45;;;;;;;35.03;28.75;;;;;;;;;;6240066;28;20095;-75
2021/09/25 02:36:46;;;;;;;40.03;28.13;;;;;;;;;;6236859;28;20037;-75
2021/09/25 02:39:49;;;;;;;36.90;27.38;;;;;;;;;;6244996;28;20556;-75
2021/09/25 02:42:51;;;;;;;38.15;29.25;;;;;;;;;;6238591;28;20049;-75
2021/09/25 02:45:53;;;;;;;35.05;27.42;;;;;;;;;;6236172;28;20593;-75
2021/09/25 02:48:55;;;;;;;36.75;27.98;;;;;;;;;;6238204;28;20092;-75
2021/09/25 02:51:56;;;;;;;32.30;27.52;;;;;;;;;;6229102;28;20139;-75
2021/09/25 02:54:59;;;;;;;33.20;26.35;;;;;;;;;;6250864;28;20127;-75
2021/09/25 02:58:01;;;;;;;33.15;26.85;;;;;;;;;;6211447;28;20098;-76
2021/09/25 03:01:02;;;;;;;32.38;26.20;;;;;;;;;;6237436;28;20127;-78
2021/09/25 03:04:04;;;;;;;35.85;28.50;;;;;;;;;;6239222;28;20041;-75
2021/09/25 03:07:07;;;;;;;33.40;25.98;;;;;;;;;;6237056;28;20451;-75
2021/09/25 03:10:11;;;;;;;34.72;26.48;;;;;;;;;;6238325;28;20116;-78
2021/09/25 03:13:12;;;;;;;;;;;;;;;;;;6239534;28;20051;-75
2021/09/25 03:16:14;;;;;;;31.80;25.45;;;;;;;;;;6237266;28;20058;-75
2021/09/25 03:19:16;;;;;;;39.80;27.42;;;;;;;;;;6240875;28;20044;-75
2021/09/25 03:22:17;;;;;;;35.38;27.02;;;;;;;;;;6236094;28;20094;-75
2021/09/25 03:25:20;;;;;;;38.28;26.67;;;;;;;;;;6239327;28;20172;-78
2021/09/25 03:28:22;;;;;;;34.10;27.13;;;;;;;;;;6231453;28;20525;-75
2021/09/25 03:31:23;;;;;;;34.55;27.65;;;;;;;;;;6229282;28;20037;-75
2021/09/25 03:34:25;;;;;;;40.00;28.05;;;;;;;;;;6240737;28;20175;-75
2021/09/25 03:37:27;;;;;;;35.58;27.70;;;;;;;;;;6234520;28;20176;-75
2021/09/25 03:40:30;;;;;;;37.92;28.73;;;;;;;;;;6239774;28;20091;-75
2021/09/25 03:43:32;;;;;;;33.30;28.13;;;;;;;;;;6245191;28;21972;-75
2021/09/25 03:46:34;;;;;;;36.78;27.75;;;;;;;;;;6230786;28;20103;-77
2021/09/25 03:49:35;;;;;;;35.67;27.15;;;;;;;;;;6241581;28;20083;-76
2021/09/25 03:52:37;;;;;;;39.75;28.70;;;;;;;;;;6236385;28;20592;-75
2021/09/25 03:55:40;;;;;;;38.58;29.58;;;;;;;;;;6233056;28;20486;-78
2021/09/25 03:58:43;;;;;;;39.77;29.63;;;;;;;;;;6242186;28;20575;-75
2021/09/25 04:01:45;;;;;;;;;;;;;;;;;;6218623;28;20499;-75
2021/09/25 04:04:46;;;;;;;40.05;29.08;;;;;;;;;;6239183;28;19965;-75
2021/09/25 04:07:48;;;;;;;41.65;29.52;;;;;;;;;;6231657;28;20049;-75
2021/09/25 04:10:51;;;;;;;38.80;30.13;;;;;;;;;;6236124;28;20051;-76
2021/09/25 04:13:53;;;;;;;38.83;30.88;;;;;;;;;;6241343;28;20103;-75
2021/09/25 04:16:54;;;;;;;38.22;30.08;;;;;;;;;;6232704;28;20618;-75
2021/09/25 04:19:56;;;;;;;39.40;31.27;;;;;;;;;;6238875;28;20124;-77
2021/09/25 04:22:58;;;;;;;39.88;29.75;;;;;;;;;;6234752;28;20045;-75
2021/09/25 04:26:01;;;;;;;45.00;32.90;;;;;;;;;;6236372;28;20041;-75
2021/09/25 04:29:03;;;;;;;42.63;31.95;;;;;;;;;;6243341;28;20498;-75
2021/09/25 04:32:05;;;;;;;41.40;31.90;;;;;;;;;;6232940;28;20247;-75
2021/09/25 04:35:08;;;;;;;42.45;31.92;;;;;;;;;;6241188;28;20131;-77
2021/09/25 04:38:09;;;;;;;42.38;32.30;;;;;;;;;;6242107;28;20124;-75
2021/09/25 04:41:12;;;;;;;43.30;32.55;;;;;;;;;;6239436;28;20167;-75
2021/09/25 04:44:16;;;;;;;44.78;32.53;;;;;;;;;;6246555;28;20037;-75
2021/09/25 04:47:18;;;;;;;44.47;32.22;;;;;;;;;;6234919;28;20390;-77
2021/09/25 04:50:20;;;;;;;43.42;31.80;;;;;;;;;;6241609;28;20094;-78
2021/09/25 04:53:21;;;;;;;45.53;33.97;;;;;;;;;;6242042;28;20048;-75
2021/09/25 04:56:24;;;;;;;44.67;33.65;;;;;;;;;;6240213;28;20073;-75
2021/09/25 04:59:26;;;;;;;42.22;34.33;;;;;;;;;;6246633;28;20183;-78
2021/09/25 05:02:28;;;;;;;45.00;33.42;;;;;;;;;;6236471;28;20199;-75
2021/09/25 05:05:29;;;;;;;48.35;34.47;;;;;;;;;;6239701;28;20045;-78
2021/09/25 05:08:31;;;;;;;43.50;33.80;;;;;;;;;;6239348;28;20409;-75
2021/09/25 05:11:34;;;;;;;43.17;33.63;;;;;;;;;;6237544;28;20196;-75
2021/09/25 05:14:35;;;;;;;47.92;33.75;;;;;;;;;;6233109;28;20088;-75
2021/09/25 05:17:37;;;;;;;44.35;33.65;;;;;;;;;;6229439;28;20084;-75
2021/09/25 05:20:38;;;;;;;46.40;35.25;;;;;;;;;;6234163;28;20053;-75
2021/09/25 05:23:40;;;;;;;44.88;34.42;;;;;;;;;;6243333;28;20067;-75
2021/09/25 05:26:43;;;;;;;46.53;34.67;;;;;;;;;;6236470;28;20041;-75
2021/09/25 05:29:45;;;;;;;42.47;33.08;;;;;;;;;;6246647;28;20110;-75
2021/09/25 05:32:46;;;;;;;46.05;33.60;;;;;;;;;;6235536;28;20125;-75
2021/09/25 05:35:48;;;;;;;49.22;32.75;;;;;;;;;;6236674;28;20131;-76
2021/09/25 05:38:49;;;;;;;44.78;32.92;;;;;;;;;;6244955;28;20060;-78
2021/09/25 05:41:53;;;;;;;42.15;30.23;;;;;;;;;;6240476;28;20095;-75
2021/09/25 05:44:55;;;;;;;38.80;29.05;;;;;;;;;;6245046;28;20049;-74
2021/09/25 05:47:56;;;;;;;38.50;27.90;;;;;;;;;;6234857;28;20041;-74
2021/09/25 05:50:58;;;;;;;40.80;27.63;;;;;;;;;;6237859;28;20171;-75
2021/09/25 05:53:59;;;;;;;39.38;27.63;;;;;;;;;;6243917;28;20128;-74
2021/09/25 05:57:03;;;;;;;36.28;26.77;;;;;;;;;;6240772;28;20594;-74
2021/09/25 06:00:06;;;;;;;40.72;27.40;;;;;;;;;;6246439;28;20414;-78
2021/09/25 06:03:07;;;;;;;36.72;26.75;;;;;;;;;;6235619;28;20118;-75
2021/09/25 06:06:09;;;;;;;32.38;24.58;;;;;;;;;;6220538;28;20575;-75
2021/09/25 06:09:10;;;;;;;32.78;25.70;;;;;;;;;;6244252;28;20042;-74
2021/09/25 06:12:13;;;;;;;35.78;25.70;;;;;;;;;;6240388;28;20041;-75
2021/09/25 06:15:15;;;;;;;31.25;24.35;;;;;;;;;;6241889;28;20128;-78
2021/09/25 06:18:16;;;;;;;36.30;24.27;;;;;;;;;;6237093;28;20045;-75
2021/09/25 06:21:18;;;;;;;32.95;24.65;;;;;;;;;;6238728;28;20132;-74
2021/09/25 06:24:19;;;;;;;33.15;24.85;;;;;;;;;;6220476;28;20533;-74
2021/09/25 06:27:23;;;;;;;32.65;24.75;;;;;;;;;;6241926;28;20053;-74
2021/09/25 06:30:24;;;;;;;33.95;24.38;;;;;;;;;;6240891;28;20045;-78
2021/09/25 06:33:26;;;;;;;35.03;25.83;;;;;;;;;;6233245;28;20172;-75
2021/09/25 06:36:28;;;;;;;32.88;24.42;;;;;;;;;;6214993;28;20048;-74
2021/09/25 06:39:29;;;;;;;34.92;25.70;;;;;;;;;;6218968;28;20054;-75
2021/09/25 06:42:32;;;;;;;32.30;24.17;;;;;;;;;;6214558;28;20137;-77
2021/09/25 06:45:35;;;;;;;33.70;23.50;;;;;;;;;;6212822;28;20170;-78
2021/09/25 06:48:37;;;;;;;34.83;24.70;;;;;;;;;;6215234;28;20504;-72
2021/09/25 06:51:38;;;;;;;31.38;23.55;;;;;;;;;;6227579;28;20425;-74
2021/09/25 06:54:41;;;;;;;31.27;23.27;;;;;;;;;;6217493;28;20046;-73
2021/09/25 06:57:44;;;;;;;29.83;22.27;;;;;;;;;;6206929;28;20093;-72
2021/09/25 07:00:47;;;;;;;28.63;22.25;;;;;;;;;;6204818;28;20083;-74
2021/09/25 07:03:48;;;;;;;32.65;22.60;;;;;;;;;;6231778;28;20041;-73
2021/09/25 07:06:50;;;;;;;33.90;21.38;;;;;;;;;;6217758;28;20136;-74
2021/09/25 07:09:51;;;;;;;27.50;21.13;;;;;;;;;;6218619;28;20053;-73
2021/09/25 07:12:54;;;;;;;28.35;21.42;;;;;;;;;;6234890;28;20140;-75
2021/09/25 07:15:56;;;;;;;27.25;20.33;;;;;;;;;;6230441;28;20060;-73
2021/09/25 07:18:57;;;;;;;27.92;20.67;;;;;;;;;;6232922;28;20055;-73
2021/09/25 07:21:59;;;;;;;24.95;20.02;;;;;;;;;;6231056;28;20561;-75
2021/09/25 07:25:00;;;;;;;26.88;20.63;;;;;;;;;;6233646;28;20132;-75
2021/09/25 07:28:05;;;;;;;27.70;19.95;;;;;;;;;;6235364;28;20127;-75
2021/09/25 07:31:09;;;;;;;23.75;18.63;;;;;;;;;;6212282;28;20798;-75
2021/09/25 07:34:10;;;;;;;26.83;18.25;;;;;;;;;;6209519;28;20042;-75
2021/09/25 07:37:13;;;;;;;25.48;18.92;;;;;;;;;;6216518;28;20045;-75
2021/09/25 07:40:14;;;;;;;24.73;19.02;;;;;;;;;;6238006;28;20519;-76
2021/09/25 07:43:17;;;;;;;26.65;20.30;;;;;;;;;;6235219;28;20396;-75
2021/09/25 07:46:19;;;;;;;26.02;19.65;;;;;;;;;;6227392;28;20130;-75
2021/09/25 07:49:21;;;;;;;26.65;19.15;;;;;;;;;;6234294;28;20452;-75
2021/09/25 07:52:22;;;;;;;25.73;20.38;;;;;;;;;;6231185;28;20045;-77
2021/09/25 07:55:25;;;;;;;27.05;21.00;;;;;;;;;;6233777;28;20408;-78
2021/09/25 07:58:28;;;;;;;27.88;21.10;;;;;;;;;;6240586;28;20546;-76
2021/09/25 08:01:30;;;;;;;28.35;19.77;;;;;;;;;;6228122;28;25271;-78
2021/09/25 08:04:32;;;;;;;27.92;19.55;;;;;;;;;;6234942;28;20914;-75
2021/09/25 08:07:33;;;;;;;30.67;18.67;;;;;;;;;;6231708;28;20132;-75
2021/09/25 08:10:35;;;;;;;25.58;18.77;;;;;;;;;;6239141;28;20064;-76
2021/09/25 08:13:38;;;;;;;23.67;17.88;;;;;;;;;;6242682;28;20045;-75
2021/09/25 08:16:40;;;;;;;25.63;18.77;;;;;;;;;;6227987;28;20102;-76
2021/09/25 08:19:41;;;;;;;26.45;19.25;;;;;;;;;;6238592;28;20436;-76
2021/09/25 08:22:45;;;;;;;24.27;19.92;;;;;;;;;;6236795;28;20520;-76
2021/09/25 08:25:46;;;;;;;;;;;;;;;;;;6235384;28;20052;-76
2021/09/25 08:28:49;;;;;;;27.25;19.00;;;;;;;;;;6242169;28;19974;-75
2021/09/25 08:31:51;;;;;;;31.77;19.25;;;;;;;;;;6232270;28;20125;-75
2021/09/25 08:34:53;;;;;;;23.35;18.42;;;;;;;;;;6242086;28;20125;-76
2021/09/25 08:37:54;;;;;;;27.35;18.42;;;;;;;;;;6236389;28;20041;-75
2021/09/25 08:40:56;;;;;;;22.20;18.42;;;;;;;;;;6235181;28;20037;-75
2021/09/25 08:43:59;;;;;;;28.90;19.98;;;;;;;;;;6243704;28;20056;-75
2021/09/25 08:47:01;;;;;;;28.00;20.35;;;;;;;;;;6234740;28;20057;-75
2021/09/25 08:50:04;;;;;;;24.52;19.85;;;;;;;;;;6239412;28;20192;-76
2021/09/25 08:53:05;;;;;;;21.63;17.85;;;;;;;;;;6236502;28;20033;-75
2021/09/25 08:56:07;;;;;;;23.77;19.30;;;;;;;;;;6238499;28;20474;-77
2021/09/25 08:59:10;;;;;;;23.42;18.92;;;;;;;;;;6241887;28;20552;-75
2021/09/25 09:02:13;;;;;;;25.60;19.63;;;;;;;;;;6232496;28;20124;-74
2021/09/25 09:05:27;;;;;;;22.60;18.58;;;;;;;;;;6236337;28;20497;-76
2021/09/25 09:08:28;;;;;;;;;;;;;;;;;;6245847;28;20120;-74
2021/09/25 09:11:30;;;;;;;23.63;17.35;;;;;;;;;;6236667;28;20066;-74
2021/09/25 09:14:42;;;;;;;21.58;16.65;;;;;;;;;;6243004;28;20083;-74
2021/09/25 09:17:43;;;;;;;19.45;15.57;;;;;;;;;;6231862;28;20086;-74
2021/09/25 09:21:01;;;;;;;19.63;16.33;;;;;;;;;;6225211;28;20046;-74
2021/09/25 09:24:05;;;;;;;20.08;15.10;;;;;;;;;;6241065;28;20218;-73
2021/09/25 09:27:12;;;;;;;21.33;17.45;;;;;;;;;;6238997;28;20050;-74
2021/09/25 09:30:16;;;;;;;19.92;16.73;;;;;;;;;;6234791;28;20052;-74
2021/09/25 09:33:29;;;;;;;23.88;16.70;;;;;;;;;;6233614;28;20059;-75
2021/09/25 09:36:32;;;;;;;19.20;15.97;;;;;;;;;;6204823;28;20042;-74
2021/09/25 09:39:34;;;;;;;23.40;17.58;;;;;;;;;;6239169;28;20060;-74
2021/09/25 09:42:43;;;;;;;20.35;16.40;;;;;;;;;;6233929;28;20180;-74
2021/09/25 09:45:46;;;;;;;19.38;15.45;;;;;;;;;;6233619;28;20144;-75
2021/09/25 09:48:48;;;;;;;19.85;15.10;;;;;;;;;;6239821;28;23288;-74
2021/09/25 09:51:51;;;;;;;20.30;15.98;;;;;;;;;;6237839;28;20046;-74
2021/09/25 09:54:54;;;;;;;21.25;15.73;;;;;;;;;;6240481;28;20045;-74
2021/09/25 09:58:02;;;;;;;20.33;16.98;;;;;;;;;;6237137;28;20049;-74
2021/09/25 10:01:06;;;;;;;22.30;16.60;;;;;;;;;;6237958;28;20068;-74
2021/09/25 10:04:08;;;;;;;22.42;16.58;;;;;;;;;;6245108;28;20048;-74
2021/09/25 10:07:10;;;;;;;18.07;16.00;;;;;;;;;;6212428;28;20068;-74
2021/09/25 10:10:11;;;;;;;22.52;16.45;;;;;;;;;;6226492;28;21284;-74
2021/09/25 10:13:16;;;;;;;18.70;16.42;;;;;;;;;;6225702;28;20235;-74
2021/09/25 10:16:20;;;;;;;21.20;17.13;;;;;;;;;;6228034;28;20702;-73
2021/09/25 10:19:21;;;;;;;;;;;;;;;;;;6248630;28;20170;-74
2021/09/25 10:22:26;;;;;;;19.08;15.95;;;;;;;;;;6237692;28;20051;-74
2021/09/25 10:25:27;;;;;;;21.85;18.40;;;;;;;;;;6237149;28;20055;-74
2021/09/25 10:28:32;;;;;;;19.50;16.23;;;;;;;;;;6234149;28;20069;-74
2021/09/25 10:31:35;;;;;;;18.60;16.45;;;;;;;;;;6207292;28;20054;-75
2021/09/25 10:34:37;;;;;;;20.33;17.25;;;;;;;;;;6217710;28;20052;-74
2021/09/25 10:37:40;;;;;;;20.40;16.42;;;;;;;;;;6207658;28;20045;-74
2021/09/25 10:40:43;;;;;;;19.65;17.08;;;;;;;;;;6208595;28;20069;-74
2021/09/25 10:43:45;;;;;;;22.40;17.88;;;;;;;;;;6215311;28;20414;-74
2021/09/25 10:46:48;;;;;;;23.38;17.75;;;;;;;;;;6201960;28;20121;-74
2021/09/25 10:49:55;;;;;;;20.33;17.88;;;;;;;;;;6230011;28;20053;-74
2021/09/25 10:53:08;;;;;;;21.95;18.20;;;;;;;;;;6234423;28;20176;-74
2021/09/25 10:56:16;;;;;;;22.27;18.10;;;;;;;;;;6235011;28;20081;-74
2021/09/25 10:59:17;;;;;;;24.17;18.10;;;;;;;;;;6241035;28;20136;-74
2021/09/25 11:02:41;;;;;;;21.88;19.52;;;;;;;;;;6227783;28;20053;-74
2021/09/25 11:06:02;;;;;;;;;;;;;;;;;;6231818;28;20902;-74
2021/09/25 11:09:06;;;;;;;23.92;20.17;;;;;;;;;;6236234;28;19921;-74
2021/09/25 11:12:09;;;;;;;27.73;20.17;;;;;;;;;;6230545;28;20110;-75
2021/09/25 11:15:18;;;;;;;;;;;;;;;;;;6236052;28;20069;-72
2021/09/25 11:18:27;;;;;;;26.13;21.42;;;;;;;;;;6229216;28;19925;-73
2021/09/25 11:21:29;;;;;;;23.85;20.63;;;;;;;;;;6221132;28;21025;-72
2021/09/25 11:24:32;;;;;;;26.77;20.38;;;;;;;;;;6235231;28;20287;-75
2021/09/25 11:27:35;;;;;;;27.60;20.67;;;;;;;;;;6229322;28;20099;-72
2021/09/25 11:30:38;;;;;;;24.80;20.63;;;;;;;;;;6227767;28;20041;-72
2021/09/25 11:33:41;;;;;;;24.88;20.58;;;;;;;;;;6233758;28;20060;-72
2021/09/25 11:36:43;;;;;;;24.60;20.80;;;;;;;;;;6238016;28;20133;-71
2021/09/25 11:39:46;;;;;;;23.80;19.98;;;;;;;;;;6247424;28;20418;-73
2021/09/25 11:42:48;;;;;;;24.58;20.30;;;;;;;;;;6222028;28;20061;-72
2021/09/25 11:45:51;;;;;;;25.17;18.95;;;;;;;;;;6213714;28;20128;-73
2021/09/25 11:48:57;;;;;;;27.80;21.63;;;;;;;;;;6220603;28;20046;-75
2021/09/25 11:51:59;;;;;;;21.33;19.02;;;;;;;;;;6209100;28;20038;-77
2021/09/25 11:55:01;;;;;;;26.08;21.70;;;;;;;;;;6218018;28;20141;-76
2021/09/25 11:58:05;;;;;;;27.58;21.08;;;;;;;;;;6213552;28;20058;-73
2021/09/25 12:01:07;;;;;;;24.08;20.80;;;;;;;;;;6223971;28;20041;-74
2021/09/25 12:04:10;;;;;;;26.50;22.13;;;;;;;;;;6230391;28;20132;-71
2021/09/25 12:07:11;;;;;;;27.20;21.05;;;;;;;;;;6225405;28;20430;-68
2021/09/25 12:10:20;;;;;;;22.48;20.08;;;;;;;;;;6230900;28;20140;-68
2021/09/25 12:13:23;;;;;;;26.40;22.25;;;;;;;;;;6234599;28;20061;-69
2021/09/25 12:16:26;;;;;;;24.73;20.52;;;;;;;;;;6227483;28;20529;-69
2021/09/25 12:19:29;;;;;;;24.77;20.13;;;;;;;;;;6236456;28;20046;-70
2021/09/25 12:22:31;;;;;;;30.42;21.65;;;;;;;;;;6229000;28;20209;-71
2021/09/25 12:25:40;;;;;;;25.50;21.10;;;;;;;;;;6238366;28;20060;-71
2021/09/25 12:28:52;;;;;;;24.23;20.45;;;;;;;;;;6229323;28;20053;-72
2021/09/25 12:32:08;;;;;;;24.10;20.63;;;;;;;;;;6228426;28;20053;-72
2021/09/25 12:35:27;;;;;;;29.40;22.63;;;;;;;;;;6240180;28;20044;-73
2021/09/25 12:38:31;;;;;;;32.70;23.27;;;;;;;;;;6205573;28;20110;-74
2021/09/25 12:41:34;;;;;;;26.10;21.73;;;;;;;;;;6200479;28;20057;-71
2021/09/25 12:44:36;;;;;;;23.13;19.08;;;;;;;;;;6239930;28;20097;-74
2021/09/25 12:47:38;;;;;;;28.70;19.02;;;;;;;;;;6189712;28;20057;-70
2021/09/25 12:50:48;;;;;;;29.42;21.02;;;;;;;;;;6225471;28;20053;-71
2021/09/25 12:53:53;;;;;;;27.83;23.92;;;;;;;;;;6238451;28;20045;-71
2021/09/25 12:56:57;;;;;;;27.58;20.80;;;;;;;;;;6236436;28;20573;-70
2021/09/25 13:00:00;;;;;;;23.73;20.48;;;;;;;;;;6241142;28;20893;-71
2021/09/25 13:03:02;;;;;;;;;;;;;;;;;;6231117;28;20378;-69
2021/09/25 13:06:16;;;;;;;28.77;21.90;;;;;;;;;;6236057;28;20062;-70
2021/09/25 13:09:18;;;;;;;28.08;23.05;;;;;;;;;;6242285;28;20489;-69
2021/09/25 13:12:25;;;;;;;27.70;21.50;;;;;;;;;;6238364;28;20455;-70
2021/09/25 13:15:30;;;;;;;26.50;21.58;;;;;;;;;;6235914;28;21005;-72
2021/09/25 13:18:31;;;;;;;28.45;21.42;;;;;;;;;;6232262;28;20050;-71
2021/09/25 13:21:36;;;;;;;22.05;18.88;;;;;;;;;;6236527;28;20527;-72
2021/09/25 13:24:40;;;;;;;27.75;19.40;;;;;;;;;;6242583;28;20165;-70
2021/09/25 13:27:41;;;;;;;28.27;21.17;;;;;;;;;;6234636;28;20057;-69
2021/09/25 13:30:43;;;;;;;26.13;21.40;;;;;;;;;;6232959;28;20568;-73
2021/09/25 13:33:45;;;;;;;26.55;21.63;;;;;;;;;;6237338;28;20049;-69
2021/09/25 13:36:49;;;;;;;35.30;21.75;;;;;;;;;;6237425;28;20227;-71
2021/09/25 13:39:50;;;;;;;24.17;20.90;;;;;;;;;;6241333;28;20190;-72
2021/09/25 13:42:52;;;;;;;29.02;22.17;;;;;;;;;;6233780;28;20139;-74
2021/09/25 13:45:53;;;;;;;25.15;20.92;;;;;;;;;;6224060;28;20046;-71
2021/09/25 13:48:55;;;;;;;22.10;19.05;;;;;;;;;;6211673;28;20050;-73
2021/09/25 13:51:58;;;;;;;27.45;21.48;;;;;;;;;;6204907;28;20058;-72
2021/09/25 13:55:00;;;;;;;25.65;21.50;;;;;;;;;;6219180;28;20052;-72
2021/09/25 13:58:01;;;;;;;26.52;21.65;;;;;;;;;;6212969;28;20049;-72
2021/09/25 14:01:05;;;;;;;27.83;21.45;;;;;;;;;;6219141;28;20037;-74
2021/09/25 14:04:06;;;;;;;25.80;21.55;;;;;;;;;;6219325;28;20045;-72
2021/09/25 14:07:09;;;;;;;22.95;20.25;;;;;;;;;;6216945;28;20136;-72
2021/09/25 14:10:11;;;;;;;;;;;;;;;;;;6208003;28;20613;-74
2021/09/25 14:13:13;;;;;;;25.83;21.92;;;;;;;;;;6215755;28;20525;-72
2021/09/25 14:16:15;;;;;;;25.58;21.73;;;;;;;;;;6208910;28;20069;-72
2021/09/25 14:19:16;;;;;;;26.80;21.45;;;;;;;;;;6216464;28;20049;-73
2021/09/25 14:22:19;;;;;;;25.00;20.95;;;;;;;;;;6213317;28;20042;-72
2021/09/25 14:25:21;;;;;;;22.70;18.52;;;;;;;;;;6215223;28;20046;-73
2021/09/25 14:28:22;;;;;;;23.48;19.98;;;;;;;;;;6220432;28;20038;-72
2021/09/25 14:31:24;;;;;;;25.50;18.42;;;;;;;;;;6213957;28;20048;-73
2021/09/25 14:34:29;;;;;;;23.50;18.67;;;;;;;;;;6215186;28;20038;-73
2021/09/25 14:37:32;;;;;;;20.63;17.70;;;;;;;;;;6223963;28;20049;-74
2021/09/25 14:40:33;;;;;;;;;;;;;;;;;;6205475;28;20050;-72
2021/09/25 14:43:35;;;;;;;20.70;16.83;;;;;;;;;;6215683;28;19928;-72
2021/09/25 14:46:36;;;;;;;20.67;17.75;;;;;;;;;;6245501;28;20349;-72
2021/09/25 14:49:38;;;;;;;23.55;16.73;;;;;;;;;;6265572;28;20052;-72
2021/09/25 14:52:41;;;;;;;24.83;17.83;;;;;;;;;;6254827;28;20132;-72
2021/09/25 14:55:43;;;;;;;27.17;17.77;;;;;;;;;;6275214;28;20138;-72
2021/09/25 14:58:44;;;;;;;23.17;16.50;;;;;;;;;;6290692;28;20102;-72
2021/09/25 15:01:46;;;;;;;24.17;17.75;;;;;;;;;;6275758;28;20090;-72
2021/09/25 15:04:47;;;;;;;21.02;17.38;;;;;;;;;;6286714;28;20048;-72
2021/09/25 15:07:50;;;;;;;22.98;16.75;;;;;;;;;;6279239;28;20044;-72
2021/09/25 15:10:52;;;;;;;25.92;18.73;;;;;;;;;;6283750;28;20467;-72
2021/09/25 15:13:54;;;;;;;24.20;17.88;;;;;;;;;;6289458;28;20166;-75
2021/09/25 15:16:55;;;;;;;23.83;15.93;;;;;;;;;;6277402;28;20059;-72
2021/09/25 15:19:57;;;;;;;17.83;14.57;;;;;;;;;;6287296;28;20065;-74
2021/09/25 15:23:00;;;;;;;20.00;14.00;;;;;;;;;;6277698;28;20052;-72
2021/09/25 15:26:02;;;;;;;18.23;12.77;;;;;;;;;;6278901;28;20072;-72
2021/09/25 15:29:04;;;;;;;17.80;15.43;;;;;;;;;;6291039;28;20116;-72
2021/09/25 15:32:09;;;;;;;21.67;17.17;;;;;;;;;;6275841;28;20064;-72
2021/09/25 15:35:11;;;;;;;24.92;17.02;;;;;;;;;;6284944;28;20041;-74
2021/09/25 15:38:14;;;;;;;22.38;17.33;;;;;;;;;;6274960;28;20055;-71
2021/09/25 15:41:15;;;;;;;29.08;17.83;;;;;;;;;;6279189;28;20119;-71
2021/09/25 15:44:17;;;;;;;28.80;19.38;;;;;;;;;;6288638;28;20131;-71
2021/09/25 15:47:19;;;;;;;29.52;19.05;;;;;;;;;;6256824;28;20056;-73
2021/09/25 15:50:21;;;;;;;26.85;20.30;;;;;;;;;;6259387;28;20041;-74
2021/09/25 15:53:24;;;;;;;29.75;21.70;;;;;;;;;;6250724;28;20131;-70
2021/09/25 15:56:25;;;;;;;;;;;;;;;;;;6255185;28;20135;-71
2021/09/25 15:59:27;;;;;;;22.30;17.70;;;;;;;;;;6261647;28;20380;-71
2021/09/25 16:02:29;;;;;;;27.38;19.33;;;;;;;;;;6256444;28;20182;-72
2021/09/25 16:05:30;;;;;;;25.00;18.98;;;;;;;;;;6250924;28;20094;-72
2021/09/25 16:08:35;;;;;;;27.45;19.45;;;;;;;;;;6264465;28;20102;-72
2021/09/25 16:11:36;;;;;;;28.95;20.67;;;;;;;;;;6259101;28;20053;-74
2021/09/25 16:14:38;;;;;;;28.73;22.58;;;;;;;;;;6263346;28;20049;-72
2021/09/25 16:17:40;;;;;;;28.25;21.38;;;;;;;;;;6259967;28;20049;-73
2021/09/25 16:20:41;;;;;;;26.08;20.65;;;;;;;;;;6257011;28;20049;-72
2021/09/25 16:23:46;;;;;;;32.78;21.35;;;;;;;;;;6258657;28;20043;-72
2021/09/25 16:26:48;;;;;;;27.95;21.83;;;;;;;;;;6259526;28;20499;-72
2021/09/25 16:29:49;;;;;;;33.45;22.27;;;;;;;;;;6268438;28;20059;-73
2021/09/25 16:32:51;;;;;;;30.98;21.92;;;;;;;;;;6262312;28;20568;-76
2021/09/25 16:35:52;;;;;;;36.45;26.05;;;;;;;;;;6261563;28;20051;-73
2021/09/25 16:38:55;;;;;;;31.17;23.50;;;;;;;;;;6266381;28;20176;-72
2021/09/25 16:41:57;;;;;;;34.85;24.70;;;;;;;;;;6264491;28;20126;-73
2021/09/25 16:44:59;;;;;;;31.75;23.63;;;;;;;;;;6269697;28;20052;-73
2021/09/25 16:48:01;;;;;;;34.55;26.48;;;;;;;;;;6258539;28;20505;-72
2021/09/25 16:51:02;;;;;;;37.08;26.65;;;;;;;;;;6260487;28;20091;-76
2021/09/25 16:54:07;;;;;;;41.53;28.38;;;;;;;;;;6266481;28;20094;-74
2021/09/25 16:57:09;;;;;;;42.33;30.83;;;;;;;;;;6264266;28;20059;-74
2021/09/25 17:00:12;;;;;;;44.67;32.33;;;;;;;;;;6269401;28;20566;-78
2021/09/25 17:03:14;;;;;;;52.78;35.90;;;;;;;;;;6268035;28;20442;-74
2021/09/25 17:06:15;;;;;;;47.78;35.22;;;;;;;;;;6262075;28;20045;-73
2021/09/25 17:09:18;;;;;;;56.60;37.17;;;;;;;;;;6279138;28;20134;-72
2021/09/25 17:12:20;;;;;;;56.72;38.92;;;;;;;;;;6269918;28;20194;-72
2021/09/25 17:15:22;;;;;;;61.20;39.42;;;;;;;;;;6272648;28;20128;-78
2021/09/25 17:18:23;;;;;;;67.82;41.83;;;;;;;;;;6267546;28;20381;-73
2021/09/25 17:21:25;;;;;;;64.93;41.53;;;;;;;;;;6269279;28;20091;-73
2021/09/25 17:24:28;;;;;;;57.97;39.22;;;;;;;;;;6270284;28;21207;-70
2021/09/25 17:27:30;;;;;;;58.83;39.33;;;;;;;;;;6272717;28;20045;-72
2021/09/25 17:30:32;;;;;;;65.72;41.22;;;;;;;;;;6267681;28;20105;-78
2021/09/25 17:33:34;;;;;;;66.60;38.15;;;;;;;;;;6274638;28;20123;-72
2021/09/25 17:36:36;;;;;;;59.20;39.45;;;;;;;;;;6260534;28;20187;-72
2021/09/25 17:39:41;;;;;;;55.13;38.22;;;;;;;;;;6278841;28;20118;-73
2021/09/25 17:42:43;;;;;;;57.40;35.15;;;;;;;;;;6279302;28;20127;-70
2021/09/25 17:45:44;;;;;;;51.78;34.42;;;;;;;;;;6258656;28;20051;-82
2021/09/25 17:48:46;;;;;;;48.53;33.88;;;;;;;;;;6267074;28;20171;-78